sensor_id;sensor_type;location;lat;lon;timestamp;temperature;humidity
3334;DHT22;1679;50.392;8.008;2023-07-30T00:02:17;17.90;99.90
3334;DHT22;1679;50.392;8.008;2023-07-30T00:04:45;17.80;99.90
3334;DHT22;1679;50.392;8.008;2023-07-30T00:07:11;17.80;99.90
3334;DHT22;1679;50.392;8.008;2023-07-30T00:09:38;17.70;99.90
3334;DHT22;1679;50.392;8.008;2023-07-30T00:12:08;17.60;99.90
3334;DHT22;1679;50.392;8.008;2023-07-30T00:14:34;17.60;99.90
3334;DHT22;1679;50.392;8.008;2023-07-30T00:17:00;17.60;99.90
3334;DHT22;1679;50.392;8.008;2023-07-30T00:19:26;17.60;99.90
3334;DHT22;1679;50.392;8.008;2023-07-30T00:21:52;17.60;99.90
3334;DHT22;1679;50.392;8.008;2023-07-30T00:24:18;17.60;99.90
3334;DHT22;1679;50.392;8.008;2023-07-30T00:26:43;17.60;99.90
3334;DHT22;1679;50.392;8.008;2023-07-30T00:29:09;17.60;99.90
3334;DHT22;1679;50.392;8.008;2023-07-30T00:31:35;17.60;99.90
3334;DHT22;1679;50.392;8.008;2023-07-30T00:34:01;17.60;99.90
3334;DHT22;1679;50.392;8.008;2023-07-30T00:36:26;17.60;99.90
3334;DHT22;1679;50.392;8.008;2023-07-30T00:38:54;17.60;99.90
3334;DHT22;1679;50.392;8.008;2023-07-30T00:41:19;17.50;99.90
3334;DHT22;1679;50.392;8.008;2023-07-30T00:43:45;17.50;99.90
3334;DHT22;1679;50.392;8.008;2023-07-30T00:46:11;17.50;99.90
3334;DHT22;1679;50.392;8.008;2023-07-30T00:48:37;17.50;99.90
3334;DHT22;1679;50.392;8.008;2023-07-30T00:51:03;17.40;99.90
3334;DHT22;1679;50.392;8.008;2023-07-30T00:53:29;17.40;99.90
3334;DHT22;1679;50.392;8.008;2023-07-30T00:55:54;17.40;99.90
3334;DHT22;1679;50.392;8.008;2023-07-30T00:58:21;17.30;99.90
3334;DHT22;1679;50.392;8.008;2023-07-30T01:00:47;17.30;99.90
3334;DHT22;1679;50.392;8.008;2023-07-30T01:03:14;17.20;99.90
3334;DHT22;1679;50.392;8.008;2023-07-30T01:05:39;17.20;99.90
3334;DHT22;1679;50.392;8.008;2023-07-30T01:08:05;17.20;99.90
3334;DHT22;1679;50.392;8.008;2023-07-30T01:10:32;17.20;99.90
3334;DHT22;1679;50.392;8.008;2023-07-30T01:13:01;17.20;99.90
3334;DHT22;1679;50.392;8.008;2023-07-30T01:15:28;17.10;99.90
3334;DHT22;1679;50.392;8.008;2023-07-30T01:17:53;17.10;99.90
3334;DHT22;1679;50.392;8.008;2023-07-30T01:20:21;17.10;99.90
3334;DHT22;1679;50.392;8.008;2023-07-30T01:22:47;17.10;99.90
3334;DHT22;1679;50.392;8.008;2023-07-30T01:25:14;17.10;99.90
3334;DHT22;1679;50.392;8.008;2023-07-30T01:27:44;17.00;99.90
3334;DHT22;1679;50.392;8.008;2023-07-30T01:30:26;17.00;99.90
3334;DHT22;1679;50.392;8.008;2023-07-30T01:32:53;17.00;99.90
3334;DHT22;1679;50.392;8.008;2023-07-30T01:35:21;16.90;99.90
3334;DHT22;1679;50.392;8.008;2023-07-30T01:37:50;16.90;99.90
3334;DHT22;1679;50.392;8.008;2023-07-30T01:40:17;16.80;99.90
3334;DHT22;1679;50.392;8.008;2023-07-30T01:42:42;16.80;99.90
3334;DHT22;1679;50.392;8.008;2023-07-30T01:45:09;16.70;99.90
3334;DHT22;1679;50.392;8.008;2023-07-30T01:47:35;16.70;99.90
3334;DHT22;1679;50.392;8.008;2023-07-30T01:50:00;16.70;99.90
3334;DHT22;1679;50.392;8.008;2023-07-30T01:52:28;16.70;99.90
3334;DHT22;1679;50.392;8.008;2023-07-30T01:54:53;16.70;99.90
3334;DHT22;1679;50.392;8.008;2023-07-30T01:57:21;16.70;99.90
3334;DHT22;1679;50.392;8.008;2023-07-30T01:59:46;16.80;99.90
3334;DHT22;1679;50.392;8.008;2023-07-30T02:02:12;16.80;99.90
3334;DHT22;1679;50.392;8.008;2023-07-30T02:04:37;16.90;99.90
3334;DHT22;1679;50.392;8.008;2023-07-30T02:07:03;16.90;99.90
3334;DHT22;1679;50.392;8.008;2023-07-30T02:09:30;16.90;99.90
3334;DHT22;1679;50.392;8.008;2023-07-30T02:11:55;17.00;99.90
3334;DHT22;1679;50.392;8.008;2023-07-30T02:14:21;17.00;99.90
3334;DHT22;1679;50.392;8.008;2023-07-30T02:16:46;17.10;99.90
3334;DHT22;1679;50.392;8.008;2023-07-30T02:19:12;17.10;99.90
3334;DHT22;1679;50.392;8.008;2023-07-30T02:21:37;17.20;99.90
3334;DHT22;1679;50.392;8.008;2023-07-30T02:24:08;17.20;99.90
3334;DHT22;1679;50.392;8.008;2023-07-30T02:26:35;17.20;99.90
3334;DHT22;1679;50.392;8.008;2023-07-30T02:29:01;17.20;99.90
3334;DHT22;1679;50.392;8.008;2023-07-30T02:31:26;17.20;99.90
3334;DHT22;1679;50.392;8.008;2023-07-30T02:33:52;17.20;99.90
3334;DHT22;1679;50.392;8.008;2023-07-30T02:36:18;17.20;99.90
3334;DHT22;1679;50.392;8.008;2023-07-30T02:38:44;17.20;99.90
3334;DHT22;1679;50.392;8.008;2023-07-30T02:41:10;17.20;99.90
3334;DHT22;1679;50.392;8.008;2023-07-30T02:43:35;17.20;99.90
3334;DHT22;1679;50.392;8.008;2023-07-30T02:46:01;17.20;99.90
3334;DHT22;1679;50.392;8.008;2023-07-30T02:48:26;17.20;99.90
3334;DHT22;1679;50.392;8.008;2023-07-30T02:50:52;17.20;99.90
3334;DHT22;1679;50.392;8.008;2023-07-30T02:53:17;17.20;99.90
3334;DHT22;1679;50.392;8.008;2023-07-30T02:55:44;17.20;99.90
3334;DHT22;1679;50.392;8.008;2023-07-30T02:58:12;17.20;99.90
3334;DHT22;1679;50.392;8.008;2023-07-30T03:00:37;17.20;99.90
3334;DHT22;1679;50.392;8.008;2023-07-30T03:03:04;17.20;99.90
3334;DHT22;1679;50.392;8.008;2023-07-30T03:05:30;17.20;99.90
3334;DHT22;1679;50.392;8.008;2023-07-30T03:07:55;17.20;99.90
3334;DHT22;1679;50.392;8.008;2023-07-30T03:10:21;17.20;99.90
3334;DHT22;1679;50.392;8.008;2023-07-30T03:12:46;17.20;99.90
3334;DHT22;1679;50.392;8.008;2023-07-30T03:15:12;17.30;99.90
3334;DHT22;1679;50.392;8.008;2023-07-30T03:17:38;17.30;99.90
3334;DHT22;1679;50.392;8.008;2023-07-30T03:20:04;17.20;99.90
3334;DHT22;1679;50.392;8.008;2023-07-30T03:22:30;17.20;99.90
3334;DHT22;1679;50.392;8.008;2023-07-30T03:24:55;17.20;99.90
3334;DHT22;1679;50.392;8.008;2023-07-30T03:27:21;17.10;99.90
3334;DHT22;1679;50.392;8.008;2023-07-30T03:29:46;17.10;99.90
3334;DHT22;1679;50.392;8.008;2023-07-30T03:32:12;17.10;99.90
3334;DHT22;1679;50.392;8.008;2023-07-30T03:34:37;17.00;99.90
3334;DHT22;1679;50.392;8.008;2023-07-30T03:37:03;17.00;99.90
3334;DHT22;1679;50.392;8.008;2023-07-30T03:39:29;16.90;99.90
3334;DHT22;1679;50.392;8.008;2023-07-30T03:41:55;16.90;99.90
3334;DHT22;1679;50.392;8.008;2023-07-30T03:44:21;16.80;99.90
3334;DHT22;1679;50.392;8.008;2023-07-30T03:46:46;16.80;99.90
3334;DHT22;1679;50.392;8.008;2023-07-30T03:49:12;16.80;99.90
3334;DHT22;1679;50.392;8.008;2023-07-30T03:51:37;16.80;99.90
3334;DHT22;1679;50.392;8.008;2023-07-30T03:54:04;16.80;99.90
3334;DHT22;1679;50.392;8.008;2023-07-30T03:56:30;16.70;99.90
3334;DHT22;1679;50.392;8.008;2023-07-30T03:58:55;16.70;99.90
3334;DHT22;1679;50.392;8.008;2023-07-30T04:01:24;16.60;99.90
3334;DHT22;1679;50.392;8.008;2023-07-30T04:03:49;16.60;99.90
3334;DHT22;1679;50.392;8.008;2023-07-30T04:06:15;16.60;99.90
3334;DHT22;1679;50.392;8.008;2023-07-30T04:08:40;16.60;99.90
3334;DHT22;1679;50.392;8.008;2023-07-30T04:11:06;16.70;99.90
3334;DHT22;1679;50.392;8.008;2023-07-30T04:13:31;16.70;99.90
3334;DHT22;1679;50.392;8.008;2023-07-30T04:15:57;16.70;99.90
3334;DHT22;1679;50.392;8.008;2023-07-30T04:18:22;16.70;99.90
3334;DHT22;1679;50.392;8.008;2023-07-30T04:20:49;16.70;99.90
3334;DHT22;1679;50.392;8.008;2023-07-30T04:23:14;16.70;99.90
3334;DHT22;1679;50.392;8.008;2023-07-30T04:25:40;16.70;99.90
3334;DHT22;1679;50.392;8.008;2023-07-30T04:28:05;16.70;99.90
3334;DHT22;1679;50.392;8.008;2023-07-30T04:30:32;16.70;99.90
3334;DHT22;1679;50.392;8.008;2023-07-30T04:32:59;16.70;99.90
3334;DHT22;1679;50.392;8.008;2023-07-30T04:35:25;16.80;99.90
3334;DHT22;1679;50.392;8.008;2023-07-30T04:37:51;16.90;99.90
3334;DHT22;1679;50.392;8.008;2023-07-30T04:40:16;16.90;99.90
3334;DHT22;1679;50.392;8.008;2023-07-30T04:42:43;16.90;99.90
3334;DHT22;1679;50.392;8.008;2023-07-30T04:45:09;17.00;99.90
3334;DHT22;1679;50.392;8.008;2023-07-30T04:47:36;17.00;99.90
3334;DHT22;1679;50.392;8.008;2023-07-30T04:50:01;17.10;99.90
3334;DHT22;1679;50.392;8.008;2023-07-30T04:52:27;17.20;99.90
3334;DHT22;1679;50.392;8.008;2023-07-30T04:54:53;17.30;99.90
3334;DHT22;1679;50.392;8.008;2023-07-30T04:57:18;17.40;99.90
3334;DHT22;1679;50.392;8.008;2023-07-30T04:59:45;17.50;99.90
3334;DHT22;1679;50.392;8.008;2023-07-30T05:02:10;17.50;99.90
3334;DHT22;1679;50.392;8.008;2023-07-30T05:04:36;17.50;99.90
3334;DHT22;1679;50.392;8.008;2023-07-30T05:07:01;17.50;99.90
3334;DHT22;1679;50.392;8.008;2023-07-30T05:09:27;17.50;99.90
3334;DHT22;1679;50.392;8.008;2023-07-30T05:11:52;17.50;99.90
3334;DHT22;1679;50.392;8.008;2023-07-30T05:14:19;17.50;99.90
3334;DHT22;1679;50.392;8.008;2023-07-30T05:16:45;17.60;99.90
3334;DHT22;1679;50.392;8.008;2023-07-30T05:19:11;17.60;99.90
3334;DHT22;1679;50.392;8.008;2023-07-30T05:21:37;17.60;99.90
3334;DHT22;1679;50.392;8.008;2023-07-30T05:24:03;17.50;99.90
3334;DHT22;1679;50.392;8.008;2023-07-30T05:26:28;17.60;99.90
3334;DHT22;1679;50.392;8.008;2023-07-30T05:28:55;17.60;99.90
3334;DHT22;1679;50.392;8.008;2023-07-30T05:31:21;17.60;99.90
3334;DHT22;1679;50.392;8.008;2023-07-30T05:33:46;17.60;99.90
3334;DHT22;1679;50.392;8.008;2023-07-30T05:36:12;17.60;99.90
3334;DHT22;1679;50.392;8.008;2023-07-30T05:38:39;17.70;99.90
3334;DHT22;1679;50.392;8.008;2023-07-30T05:41:04;17.80;99.90
3334;DHT22;1679;50.392;8.008;2023-07-30T05:43:30;17.90;99.90
3334;DHT22;1679;50.392;8.008;2023-07-30T05:45:56;18.00;99.90
3334;DHT22;1679;50.392;8.008;2023-07-30T05:48:23;18.10;99.90
3334;DHT22;1679;50.392;8.008;2023-07-30T05:50:49;18.20;99.90
3334;DHT22;1679;50.392;8.008;2023-07-30T05:53:14;18.30;99.90
3334;DHT22;1679;50.392;8.008;2023-07-30T05:55:40;18.40;99.90
3334;DHT22;1679;50.392;8.008;2023-07-30T05:58:05;18.50;99.90
3334;DHT22;1679;50.392;8.008;2023-07-30T06:00:31;18.70;99.90
3334;DHT22;1679;50.392;8.008;2023-07-30T06:02:57;18.90;99.90
3334;DHT22;1679;50.392;8.008;2023-07-30T06:05:22;19.10;99.90
3334;DHT22;1679;50.392;8.008;2023-07-30T06:07:48;19.30;99.90
3334;DHT22;1679;50.392;8.008;2023-07-30T06:10:14;19.40;99.90
3334;DHT22;1679;50.392;8.008;2023-07-30T06:12:40;19.50;99.90
3334;DHT22;1679;50.392;8.008;2023-07-30T06:15:06;19.70;99.90
3334;DHT22;1679;50.392;8.008;2023-07-30T06:17:32;19.70;99.90
3334;DHT22;1679;50.392;8.008;2023-07-30T06:19:57;19.70;99.90
3334;DHT22;1679;50.392;8.008;2023-07-30T06:22:26;19.70;99.90
3334;DHT22;1679;50.392;8.008;2023-07-30T06:24:51;19.70;99.90
3334;DHT22;1679;50.392;8.008;2023-07-30T06:27:17;19.60;99.90
3334;DHT22;1679;50.392;8.008;2023-07-30T06:29:42;19.70;99.90
3334;DHT22;1679;50.392;8.008;2023-07-30T06:32:08;19.70;99.90
3334;DHT22;1679;50.392;8.008;2023-07-30T06:34:34;19.70;99.90
3334;DHT22;1679;50.392;8.008;2023-07-30T06:36:59;19.70;99.90
3334;DHT22;1679;50.392;8.008;2023-07-30T06:39:25;19.70;99.90
3334;DHT22;1679;50.392;8.008;2023-07-30T06:41:50;19.60;99.90
3334;DHT22;1679;50.392;8.008;2023-07-30T06:44:16;19.50;99.90
3334;DHT22;1679;50.392;8.008;2023-07-30T06:46:41;19.40;99.90
3334;DHT22;1679;50.392;8.008;2023-07-30T06:49:07;19.40;99.90
3334;DHT22;1679;50.392;8.008;2023-07-30T06:51:32;19.50;99.90
3334;DHT22;1679;50.392;8.008;2023-07-30T06:53:58;19.50;99.90
3334;DHT22;1679;50.392;8.008;2023-07-30T06:56:25;19.60;99.90
3334;DHT22;1679;50.392;8.008;2023-07-30T06:58:50;19.60;99.90
3334;DHT22;1679;50.392;8.008;2023-07-30T07:01:15;19.70;99.90
3334;DHT22;1679;50.392;8.008;2023-07-30T07:03:41;19.80;99.90
3334;DHT22;1679;50.392;8.008;2023-07-30T07:06:08;19.90;99.90
3334;DHT22;1679;50.392;8.008;2023-07-30T07:08:34;19.90;99.90
3334;DHT22;1679;50.392;8.008;2023-07-30T07:10:59;19.90;99.90
3334;DHT22;1679;50.392;8.008;2023-07-30T07:13:25;19.90;99.90
3334;DHT22;1679;50.392;8.008;2023-07-30T07:15:50;19.90;99.90
3334;DHT22;1679;50.392;8.008;2023-07-30T07:18:16;19.80;99.90
3334;DHT22;1679;50.392;8.008;2023-07-30T07:20:41;19.70;99.90
3334;DHT22;1679;50.392;8.008;2023-07-30T07:23:07;19.60;99.90
3334;DHT22;1679;50.392;8.008;2023-07-30T07:25:32;19.60;99.90
3334;DHT22;1679;50.392;8.008;2023-07-30T07:27:58;19.60;99.90
3334;DHT22;1679;50.392;8.008;2023-07-30T07:30:25;19.70;99.90
3334;DHT22;1679;50.392;8.008;2023-07-30T07:32:52;19.80;99.90
3334;DHT22;1679;50.392;8.008;2023-07-30T07:35:21;19.80;99.90
3334;DHT22;1679;50.392;8.008;2023-07-30T07:37:49;19.90;99.90
3334;DHT22;1679;50.392;8.008;2023-07-30T07:40:15;20.10;99.90
3334;DHT22;1679;50.392;8.008;2023-07-30T07:42:41;20.00;99.90
3334;DHT22;1679;50.392;8.008;2023-07-30T07:45:07;19.90;99.90
3334;DHT22;1679;50.392;8.008;2023-07-30T07:47:34;19.70;99.90
3334;DHT22;1679;50.392;8.008;2023-07-30T07:50:01;19.60;99.90
3334;DHT22;1679;50.392;8.008;2023-07-30T07:52:26;19.40;99.90
3334;DHT22;1679;50.392;8.008;2023-07-30T07:54:52;19.20;99.90
3334;DHT22;1679;50.392;8.008;2023-07-30T07:57:19;19.10;99.90
3334;DHT22;1679;50.392;8.008;2023-07-30T07:59:44;18.90;99.90
3334;DHT22;1679;50.392;8.008;2023-07-30T08:02:11;18.80;99.90
3334;DHT22;1679;50.392;8.008;2023-07-30T08:04:37;18.80;99.90
3334;DHT22;1679;50.392;8.008;2023-07-30T08:07:04;18.70;99.90
3334;DHT22;1679;50.392;8.008;2023-07-30T08:09:31;18.60;99.90
3334;DHT22;1679;50.392;8.008;2023-07-30T08:11:56;18.50;99.90
3334;DHT22;1679;50.392;8.008;2023-07-30T08:14:23;18.20;99.90
3334;DHT22;1679;50.392;8.008;2023-07-30T08:16:48;18.00;99.90
3334;DHT22;1679;50.392;8.008;2023-07-30T08:19:14;17.80;99.90
3334;DHT22;1679;50.392;8.008;2023-07-30T08:21:39;17.70;99.90
3334;DHT22;1679;50.392;8.008;2023-07-30T08:24:05;17.50;99.90
3334;DHT22;1679;50.392;8.008;2023-07-30T08:26:31;17.40;99.90
3334;DHT22;1679;50.392;8.008;2023-07-30T08:28:57;17.20;99.90
3334;DHT22;1679;50.392;8.008;2023-07-30T08:31:23;17.20;99.90
3334;DHT22;1679;50.392;8.008;2023-07-30T08:33:48;17.10;99.90
3334;DHT22;1679;50.392;8.008;2023-07-30T08:36:14;16.90;99.90
3334;DHT22;1679;50.392;8.008;2023-07-30T08:38:39;16.80;99.90
3334;DHT22;1679;50.392;8.008;2023-07-30T08:41:05;16.70;99.90
3334;DHT22;1679;50.392;8.008;2023-07-30T08:43:32;16.70;99.90
3334;DHT22;1679;50.392;8.008;2023-07-30T08:45:59;16.60;99.90
3334;DHT22;1679;50.392;8.008;2023-07-30T08:48:25;16.30;99.90
3334;DHT22;1679;50.392;8.008;2023-07-30T08:50:54;16.10;99.90
3334;DHT22;1679;50.392;8.008;2023-07-30T08:53:21;16.00;99.90
3334;DHT22;1679;50.392;8.008;2023-07-30T08:55:47;15.90;99.90
3334;DHT22;1679;50.392;8.008;2023-07-30T08:58:13;15.90;99.90
3334;DHT22;1679;50.392;8.008;2023-07-30T09:00:41;15.80;99.90
3334;DHT22;1679;50.392;8.008;2023-07-30T09:03:08;15.80;99.90
3334;DHT22;1679;50.392;8.008;2023-07-30T09:05:35;15.90;99.90
3334;DHT22;1679;50.392;8.008;2023-07-30T09:08:01;15.90;99.90
3334;DHT22;1679;50.392;8.008;2023-07-30T09:10:27;16.00;99.90
3334;DHT22;1679;50.392;8.008;2023-07-30T09:12:55;15.90;99.90
3334;DHT22;1679;50.392;8.008;2023-07-30T09:15:35;16.00;99.90
3334;DHT22;1679;50.392;8.008;2023-07-30T09:18:03;16.10;99.90
3334;DHT22;1679;50.392;8.008;2023-07-30T09:20:40;16.30;99.90
3334;DHT22;1679;50.392;8.008;2023-07-30T09:23:08;16.50;99.90
3334;DHT22;1679;50.392;8.008;2023-07-30T09:25:37;16.70;99.90
3334;DHT22;1679;50.392;8.008;2023-07-30T09:28:04;16.90;99.90
3334;DHT22;1679;50.392;8.008;2023-07-30T09:30:30;17.00;99.90
3334;DHT22;1679;50.392;8.008;2023-07-30T09:32:56;17.10;99.90
3334;DHT22;1679;50.392;8.008;2023-07-30T09:35:24;17.20;99.90
3334;DHT22;1679;50.392;8.008;2023-07-30T09:37:50;17.10;99.90
3334;DHT22;1679;50.392;8.008;2023-07-30T09:40:34;17.20;99.90
3334;DHT22;1679;50.392;8.008;2023-07-30T09:43:00;17.40;99.90
3334;DHT22;1679;50.392;8.008;2023-07-30T09:45:28;17.40;99.90
3334;DHT22;1679;50.392;8.008;2023-07-30T09:47:55;17.50;99.90
3334;DHT22;1679;50.392;8.008;2023-07-30T09:50:24;17.70;99.90
3334;DHT22;1679;50.392;8.008;2023-07-30T09:52:50;18.00;99.90
3334;DHT22;1679;50.392;8.008;2023-07-30T09:55:16;18.70;99.90
3334;DHT22;1679;50.392;8.008;2023-07-30T09:57:44;19.30;99.90
3334;DHT22;1679;50.392;8.008;2023-07-30T10:00:11;19.50;99.90
3334;DHT22;1679;50.392;8.008;2023-07-30T10:02:45;19.60;99.90
3334;DHT22;1679;50.392;8.008;2023-07-30T10:05:14;19.30;99.90
3334;DHT22;1679;50.392;8.008;2023-07-30T10:07:42;19.10;99.90
3334;DHT22;1679;50.392;8.008;2023-07-30T10:10:11;19.10;99.90
3334;DHT22;1679;50.392;8.008;2023-07-30T10:12:39;19.30;99.90
3334;DHT22;1679;50.392;8.008;2023-07-30T10:15:07;19.50;99.90
3334;DHT22;1679;50.392;8.008;2023-07-30T10:17:33;19.80;99.90
3334;DHT22;1679;50.392;8.008;2023-07-30T10:20:19;19.90;99.90
3334;DHT22;1679;50.392;8.008;2023-07-30T10:22:45;20.20;99.90
3334;DHT22;1679;50.392;8.008;2023-07-30T10:25:12;19.80;99.90
3334;DHT22;1679;50.392;8.008;2023-07-30T10:27:41;19.60;99.90
3334;DHT22;1679;50.392;8.008;2023-07-30T10:30:15;19.60;99.90
3334;DHT22;1679;50.392;8.008;2023-07-30T10:35:54;19.40;99.90
3334;DHT22;1679;50.392;8.008;2023-07-30T10:38:30;19.30;99.90
3334;DHT22;1679;50.392;8.008;2023-07-30T10:41:13;19.60;99.90
3334;DHT22;1679;50.392;8.008;2023-07-30T10:43:50;19.80;99.90
3334;DHT22;1679;50.392;8.008;2023-07-30T10:46:17;19.70;99.90
3334;DHT22;1679;50.392;8.008;2023-07-30T10:48:44;19.40;99.90
3334;DHT22;1679;50.392;8.008;2023-07-30T10:51:12;19.20;99.90
3334;DHT22;1679;50.392;8.008;2023-07-30T10:53:38;19.10;99.90
3334;DHT22;1679;50.392;8.008;2023-07-30T10:56:06;18.90;99.90
3334;DHT22;1679;50.392;8.008;2023-07-30T10:58:34;18.90;99.90
3334;DHT22;1679;50.392;8.008;2023-07-30T11:01:06;18.80;99.90
3334;DHT22;1679;50.392;8.008;2023-07-30T11:03:33;18.90;99.90
3334;DHT22;1679;50.392;8.008;2023-07-30T11:06:01;19.00;99.90
3334;DHT22;1679;50.392;8.008;2023-07-30T11:08:40;19.40;99.90
3334;DHT22;1679;50.392;8.008;2023-07-30T11:11:08;19.80;99.90
3334;DHT22;1679;50.392;8.008;2023-07-30T11:13:38;19.90;99.90
3334;DHT22;1679;50.392;8.008;2023-07-30T11:16:08;20.00;99.90
3334;DHT22;1679;50.392;8.008;2023-07-30T11:18:35;20.20;99.90
3334;DHT22;1679;50.392;8.008;2023-07-30T11:21:09;20.20;99.90
3334;DHT22;1679;50.392;8.008;2023-07-30T11:23:36;20.20;99.90
3334;DHT22;1679;50.392;8.008;2023-07-30T11:26:03;20.30;99.90
3334;DHT22;1679;50.392;8.008;2023-07-30T11:28:33;20.40;99.90
3334;DHT22;1679;50.392;8.008;2023-07-30T11:31:04;20.50;99.90
3334;DHT22;1679;50.392;8.008;2023-07-30T11:33:31;20.50;99.90
3334;DHT22;1679;50.392;8.008;2023-07-30T11:35:57;20.30;99.90
3334;DHT22;1679;50.392;8.008;2023-07-30T11:38:26;20.20;99.90
3334;DHT22;1679;50.392;8.008;2023-07-30T11:40:53;20.10;99.90
3334;DHT22;1679;50.392;8.008;2023-07-30T11:43:22;20.20;99.90
3334;DHT22;1679;50.392;8.008;2023-07-30T11:46:05;20.20;99.90
3334;DHT22;1679;50.392;8.008;2023-07-30T11:48:31;20.20;99.90
3334;DHT22;1679;50.392;8.008;2023-07-30T11:50:58;20.10;99.90
3334;DHT22;1679;50.392;8.008;2023-07-30T11:54:01;20.00;99.90
3334;DHT22;1679;50.392;8.008;2023-07-30T11:56:29;20.10;99.90
3334;DHT22;1679;50.392;8.008;2023-07-30T11:59:05;20.20;99.90
3334;DHT22;1679;50.392;8.008;2023-07-30T12:01:33;20.20;99.90
3334;DHT22;1679;50.392;8.008;2023-07-30T12:04:00;20.30;99.90
3334;DHT22;1679;50.392;8.008;2023-07-30T12:11:50;20.60;99.90
3334;DHT22;1679;50.392;8.008;2023-07-30T12:14:16;20.70;99.90
3334;DHT22;1679;50.392;8.008;2023-07-30T12:16:42;20.60;99.90
3334;DHT22;1679;50.392;8.008;2023-07-30T12:19:08;20.70;99.90
3334;DHT22;1679;50.392;8.008;2023-07-30T12:21:33;20.70;99.90
3334;DHT22;1679;50.392;8.008;2023-07-30T12:24:00;20.90;99.90
3334;DHT22;1679;50.392;8.008;2023-07-30T12:26:25;21.10;99.90
3334;DHT22;1679;50.392;8.008;2023-07-30T12:28:51;21.10;99.90
3334;DHT22;1679;50.392;8.008;2023-07-30T12:31:17;21.10;99.90
3334;DHT22;1679;50.392;8.008;2023-07-30T12:33:43;21.00;99.90
3334;DHT22;1679;50.392;8.008;2023-07-30T12:36:14;21.10;99.90
3334;DHT22;1679;50.392;8.008;2023-07-30T12:38:40;20.90;99.90
3334;DHT22;1679;50.392;8.008;2023-07-30T12:41:05;20.80;99.90
3334;DHT22;1679;50.392;8.008;2023-07-30T12:43:31;20.90;99.90
3334;DHT22;1679;50.392;8.008;2023-07-30T12:45:56;20.90;99.90
3334;DHT22;1679;50.392;8.008;2023-07-30T12:48:22;21.00;99.90
3334;DHT22;1679;50.392;8.008;2023-07-30T12:50:48;20.80;99.90
3334;DHT22;1679;50.392;8.008;2023-07-30T12:53:13;20.90;99.90
3334;DHT22;1679;50.392;8.008;2023-07-30T12:55:39;21.20;99.90
3334;DHT22;1679;50.392;8.008;2023-07-30T12:58:05;21.30;99.90
3334;DHT22;1679;50.392;8.008;2023-07-30T13:00:31;21.40;99.90
3334;DHT22;1679;50.392;8.008;2023-07-30T13:02:58;21.50;99.90
3334;DHT22;1679;50.392;8.008;2023-07-30T13:05:23;21.40;99.90
3334;DHT22;1679;50.392;8.008;2023-07-30T13:07:49;21.20;99.90
3334;DHT22;1679;50.392;8.008;2023-07-30T13:10:15;21.10;99.90
3334;DHT22;1679;50.392;8.008;2023-07-30T13:12:41;21.00;99.90
3334;DHT22;1679;50.392;8.008;2023-07-30T13:15:07;21.10;99.90
3334;DHT22;1679;50.392;8.008;2023-07-30T13:17:33;21.20;99.90
3334;DHT22;1679;50.392;8.008;2023-07-30T13:19:58;21.10;99.90
3334;DHT22;1679;50.392;8.008;2023-07-30T13:22:24;20.90;99.90
3334;DHT22;1679;50.392;8.008;2023-07-30T13:24:50;20.90;99.90
3334;DHT22;1679;50.392;8.008;2023-07-30T13:27:17;21.00;99.90
3334;DHT22;1679;50.392;8.008;2023-07-30T13:29:42;21.30;99.90
3334;DHT22;1679;50.392;8.008;2023-07-30T13:32:09;21.50;99.90
3334;DHT22;1679;50.392;8.008;2023-07-30T13:34:35;21.60;99.90
3334;DHT22;1679;50.392;8.008;2023-07-30T13:37:02;21.60;99.90
3334;DHT22;1679;50.392;8.008;2023-07-30T13:39:27;21.40;99.90
3334;DHT22;1679;50.392;8.008;2023-07-30T13:41:54;21.40;99.90
3334;DHT22;1679;50.392;8.008;2023-07-30T13:44:20;21.40;99.90
3334;DHT22;1679;50.392;8.008;2023-07-30T13:46:46;21.40;99.90
3334;DHT22;1679;50.392;8.008;2023-07-30T13:49:11;21.50;99.90
3334;DHT22;1679;50.392;8.008;2023-07-30T13:51:37;21.60;99.90
3334;DHT22;1679;50.392;8.008;2023-07-30T13:54:02;21.80;99.90
3334;DHT22;1679;50.392;8.008;2023-07-30T13:56:29;21.80;99.90
3334;DHT22;1679;50.392;8.008;2023-07-30T13:58:55;21.80;99.90
3334;DHT22;1679;50.392;8.008;2023-07-30T14:01:21;21.80;99.90
3334;DHT22;1679;50.392;8.008;2023-07-30T14:03:47;21.80;99.90
3334;DHT22;1679;50.392;8.008;2023-07-30T14:06:13;22.10;99.90
3334;DHT22;1679;50.392;8.008;2023-07-30T14:08:38;22.30;99.90
3334;DHT22;1679;50.392;8.008;2023-07-30T14:11:04;22.40;99.90
3334;DHT22;1679;50.392;8.008;2023-07-30T14:13:29;22.30;99.90
3334;DHT22;1679;50.392;8.008;2023-07-30T14:15:55;22.20;99.90
3334;DHT22;1679;50.392;8.008;2023-07-30T14:18:22;22.00;99.90
3334;DHT22;1679;50.392;8.008;2023-07-30T14:20:47;21.80;99.90
3334;DHT22;1679;50.392;8.008;2023-07-30T14:23:14;21.60;99.90
3334;DHT22;1679;50.392;8.008;2023-07-30T14:25:41;21.60;99.90
3334;DHT22;1679;50.392;8.008;2023-07-30T14:28:06;21.50;99.90
3334;DHT22;1679;50.392;8.008;2023-07-30T14:30:32;21.50;99.90
3334;DHT22;1679;50.392;8.008;2023-07-30T14:33:01;21.40;99.90
3334;DHT22;1679;50.392;8.008;2023-07-30T14:35:27;21.40;99.90
3334;DHT22;1679;50.392;8.008;2023-07-30T14:37:52;21.40;99.90
3334;DHT22;1679;50.392;8.008;2023-07-30T14:40:19;21.40;99.90
3334;DHT22;1679;50.392;8.008;2023-07-30T14:42:46;21.50;99.90
3334;DHT22;1679;50.392;8.008;2023-07-30T14:45:12;21.60;99.90
3334;DHT22;1679;50.392;8.008;2023-07-30T14:47:37;21.70;99.90
3334;DHT22;1679;50.392;8.008;2023-07-30T14:50:06;21.90;99.90
3334;DHT22;1679;50.392;8.008;2023-07-30T14:52:31;22.10;99.90
3334;DHT22;1679;50.392;8.008;2023-07-30T14:54:58;22.10;99.90
3334;DHT22;1679;50.392;8.008;2023-07-30T14:57:24;22.10;99.90
3334;DHT22;1679;50.392;8.008;2023-07-30T14:59:49;22.10;99.90
3334;DHT22;1679;50.392;8.008;2023-07-30T15:02:15;22.10;99.90
3334;DHT22;1679;50.392;8.008;2023-07-30T15:04:40;22.10;99.90
3334;DHT22;1679;50.392;8.008;2023-07-30T15:07:06;22.00;99.90
3334;DHT22;1679;50.392;8.008;2023-07-30T15:09:34;22.00;99.90
3334;DHT22;1679;50.392;8.008;2023-07-30T15:12:01;21.80;99.90
3334;DHT22;1679;50.392;8.008;2023-07-30T15:14:27;21.70;99.90
3334;DHT22;1679;50.392;8.008;2023-07-30T15:16:54;21.50;99.90
3334;DHT22;1679;50.392;8.008;2023-07-30T15:19:22;21.50;99.90
3334;DHT22;1679;50.392;8.008;2023-07-30T15:21:47;21.50;99.90
3334;DHT22;1679;50.392;8.008;2023-07-30T15:24:13;21.70;99.90
3334;DHT22;1679;50.392;8.008;2023-07-30T15:26:38;21.80;99.90
3334;DHT22;1679;50.392;8.008;2023-07-30T15:29:04;21.90;99.90
3334;DHT22;1679;50.392;8.008;2023-07-30T15:31:29;22.00;99.90
3334;DHT22;1679;50.392;8.008;2023-07-30T15:33:55;22.10;99.90
3334;DHT22;1679;50.392;8.008;2023-07-30T15:36:22;22.30;99.90
3334;DHT22;1679;50.392;8.008;2023-07-30T15:38:47;22.30;99.90
3334;DHT22;1679;50.392;8.008;2023-07-30T15:41:18;22.30;99.90
3334;DHT22;1679;50.392;8.008;2023-07-30T15:43:43;22.40;99.90
3334;DHT22;1679;50.392;8.008;2023-07-30T15:46:09;22.40;99.90
3334;DHT22;1679;50.392;8.008;2023-07-30T15:48:35;22.40;99.90
3334;DHT22;1679;50.392;8.008;2023-07-30T15:51:03;22.20;99.90
3334;DHT22;1679;50.392;8.008;2023-07-30T15:53:29;22.10;99.90
3334;DHT22;1679;50.392;8.008;2023-07-30T15:55:58;22.10;99.90
3334;DHT22;1679;50.392;8.008;2023-07-30T15:58:24;22.00;99.90
3334;DHT22;1679;50.392;8.008;2023-07-30T16:00:49;21.60;99.90
3334;DHT22;1679;50.392;8.008;2023-07-30T16:03:15;21.50;99.90
3334;DHT22;1679;50.392;8.008;2023-07-30T16:05:46;21.50;99.90
3334;DHT22;1679;50.392;8.008;2023-07-30T16:08:13;21.40;99.90